createdAt,value
2022-09-23T00:01:19.212Z,99069.81
2022-09-23T00:03:46.925Z,99070.41
2022-09-23T00:06:22.115Z,99072.03
2022-09-23T00:08:49.898Z,99073.09
2022-09-23T00:11:19.534Z,99067.94
2022-09-23T00:13:48.987Z,99066.31
2022-09-23T00:16:19.981Z,99071.91
2022-09-23T00:18:47.057Z,99072.41
2022-09-23T00:21:14.580Z,99065.38
2022-09-23T00:23:43.313Z,99068.31
2022-09-23T00:26:12.925Z,99069.94
2022-09-23T00:28:40.652Z,99072.06
2022-09-23T00:31:12.741Z,99067.50
2022-09-23T00:33:40.849Z,99066.91
2022-09-23T00:36:11.205Z,99067.97
2022-09-23T00:38:38.686Z,99074.19
2022-09-23T00:41:17.834Z,99073.91
2022-09-23T00:43:47.995Z,99076.06
2022-09-23T00:46:24.193Z,99075.56
2022-09-23T00:48:54.937Z,99076.63
2022-09-23T00:51:26.112Z,99073.69
2022-09-23T00:53:53.162Z,99070.78
2022-09-23T00:56:21.681Z,99067.00
2022-09-23T00:58:49.500Z,99074.28
2022-09-23T01:01:16.519Z,99073.22
2022-09-23T01:03:45.597Z,99071.09
2022-09-23T01:06:13.682Z,99066.03
2022-09-23T01:08:44.781Z,99070.13
2022-09-23T01:11:29.949Z,99068.53
2022-09-23T01:14:02.361Z,99071.81
2022-09-23T01:16:47.851Z,99067.69
2022-09-23T01:19:36.766Z,99067.13
2022-09-23T01:22:08.646Z,99062.22
2022-09-23T01:25:00.939Z,99068.06
2022-09-23T01:27:32.441Z,99074.28
2022-09-23T01:30:19.156Z,99075.91
2022-09-23T01:33:01.308Z,99078.59
2022-09-23T01:35:30.487Z,99078.00
2022-09-23T01:38:25.533Z,99076.63
2022-09-23T01:41:00.114Z,99080.84
2022-09-23T01:43:48.757Z,99084.94
2022-09-23T01:46:29.735Z,99084.59
2022-09-23T01:49:03.277Z,99078.06
2022-09-23T01:51:37.944Z,99081.56
2022-09-23T01:54:11.007Z,99078.53
2022-09-23T01:56:43.957Z,99067.66
2022-09-23T01:59:26.527Z,99082.16
2022-09-23T02:02:04.404Z,99082.38
2022-09-23T02:04:38.919Z,99079.94
2022-09-23T02:07:24.842Z,99082.75
2022-09-23T02:10:02.427Z,99090.72
2022-09-23T02:12:33.965Z,99090.13
2022-09-23T02:15:14.472Z,99093.41
2022-09-23T02:17:45.179Z,99091.75
2022-09-23T02:20:14.995Z,99096.09
2022-09-23T02:22:58.199Z,99087.66
2022-09-23T02:25:34.060Z,99092.69
2022-09-23T02:28:13.051Z,99090.47
2022-09-23T02:30:53.899Z,99087.69
2022-09-23T02:33:43.327Z,99090.47
2022-09-23T02:36:15.959Z,99086.97
2022-09-23T02:38:57.620Z,99095.63
2022-09-23T02:41:41.056Z,99091.53
2022-09-23T02:44:11.404Z,99089.66
2022-09-23T02:46:38.597Z,99081.59
2022-09-23T02:49:22.312Z,99090.84
2022-09-23T02:51:49.848Z,99084.28
2022-09-23T02:54:22.010Z,99093.53
2022-09-23T02:56:52.666Z,99089.78
2022-09-23T02:59:21.995Z,99093.53
2022-09-23T03:02:07.163Z,99093.41
2022-09-23T03:04:38.528Z,99091.78
2022-09-23T03:07:18.639Z,99094.22
2022-09-23T03:09:48.584Z,99101.25
2022-09-23T03:12:36.321Z,99101.84
2022-09-23T03:15:09.745Z,99095.63
2022-09-23T03:18:04.960Z,99096.34
2022-09-23T03:20:35.494Z,99098.81
2022-09-23T03:23:07.117Z,99100.44
2022-09-23T03:25:37.089Z,99101.13
2022-09-23T03:28:04.992Z,99098.69
2022-09-23T03:30:35.649Z,99099.50
2022-09-23T03:33:05.052Z,99097.41
2022-09-23T03:35:54.366Z,99092.81
2022-09-23T03:38:24.586Z,99085.34
2022-09-23T03:40:53.379Z,99087.31
2022-09-23T03:43:20.618Z,99086.28
2022-09-23T03:45:47.982Z,99092.25
2022-09-23T03:48:15.804Z,99084.97
2022-09-23T03:50:42.731Z,99079.13
2022-09-23T03:53:09.573Z,99078.66
2022-09-23T03:55:39.450Z,99082.16
2022-09-23T03:58:08.164Z,99070.56
2022-09-23T04:00:36.265Z,99071.38
2022-09-23T04:03:06.137Z,99070.34
2022-09-23T04:05:36.333Z,99067.28
2022-09-23T04:08:03.279Z,99064.13
2022-09-23T04:10:30.142Z,99063.66
2022-09-23T04:12:57.083Z,99064.25
2022-09-23T04:15:23.956Z,99059.19
2022-09-23T04:17:50.957Z,99062.38
2022-09-23T04:20:19.160Z,99056.50
2022-09-23T04:22:49.536Z,99045.94
2022-09-23T04:25:16.981Z,99040.00
2022-09-23T04:27:43.964Z,99045.50
2022-09-23T04:30:11.917Z,99040.22
2022-09-23T04:32:38.835Z,99047.00
2022-09-23T04:35:07.215Z,99046.53
2022-09-23T04:37:37.260Z,99043.34
2022-09-23T04:40:04.597Z,99042.78
2022-09-23T04:42:31.816Z,99044.53
2022-09-23T04:44:59.057Z,99047.56
2022-09-23T04:47:26.295Z,99045.22
2022-09-23T04:49:56.568Z,99058.22
2022-09-23T04:52:26.027Z,99051.06
2022-09-23T04:54:52.928Z,99054.16
2022-09-23T04:57:19.925Z,99052.06
2022-09-23T04:59:47.430Z,99041.28
2022-09-23T05:02:15.391Z,99048.53
2022-09-23T05:04:42.639Z,99051.31
2022-09-23T05:07:10.678Z,99055.91
2022-09-23T05:09:37.579Z,99054.59
2022-09-23T05:12:04.960Z,99056.00
2022-09-23T05:14:31.892Z,99052.81
2022-09-23T05:16:58.774Z,99057.63
2022-09-23T05:19:25.754Z,99058.22
2022-09-23T05:21:52.717Z,99065.00
2022-09-23T05:24:19.825Z,99058.44
2022-09-23T05:26:47.082Z,99058.91
2022-09-23T05:29:14.913Z,99057.22
2022-09-23T05:31:41.826Z,99055.38
2022-09-23T05:34:08.877Z,99057.22
2022-09-23T05:36:38.758Z,99051.84
2022-09-23T05:39:07.641Z,99049.44
2022-09-23T05:41:34.991Z,99047.50
2022-09-23T05:44:02.673Z,99052.28
2022-09-23T05:46:31.022Z,99055.16
2022-09-23T05:49:02.448Z,99053.25
2022-09-23T05:51:31.612Z,99049.88
2022-09-23T05:53:59.565Z,99048.84
2022-09-23T05:56:47.384Z,99049.50
2022-09-23T05:59:15.488Z,99042.97
2022-09-23T06:01:44.875Z,99044.09
2022-09-23T06:04:14.422Z,99037.06
2022-09-23T06:06:42.699Z,99048.44
2022-09-23T06:09:15.433Z,99050.97
2022-09-23T06:11:42.798Z,99048.34
2022-09-23T06:14:12.255Z,99040.81
2022-09-23T06:16:39.139Z,99043.81
2022-09-23T06:19:08.127Z,99036.50
2022-09-23T06:21:37.704Z,99039.03
2022-09-23T06:24:06.382Z,99043.59
2022-09-23T06:26:36.331Z,99058.94
2022-09-23T06:29:05.072Z,99073.72
2022-09-23T06:31:33.136Z,99073.41
2022-09-23T06:34:09.149Z,99060.03
2022-09-23T06:36:43.870Z,99040.41
2022-09-23T06:39:15.594Z,99041.13
2022-09-23T06:41:44.502Z,99043.19
2022-09-23T06:44:14.976Z,99045.25
2022-09-23T06:46:42.260Z,99037.09
2022-09-23T06:49:11.284Z,99027.06
2022-09-23T06:51:38.303Z,99041.81
2022-09-23T06:54:06.643Z,99043.88
2022-09-23T06:56:38.705Z,99033.16
2022-09-23T06:59:07.775Z,99032.06
2022-09-23T07:01:35.450Z,99044.25
2022-09-23T07:04:05.356Z,99046.50
2022-09-23T07:06:32.470Z,99045.91
2022-09-23T07:09:01.174Z,99038.75
2022-09-23T07:11:28.263Z,99031.72
2022-09-23T07:13:55.381Z,99039.38
2022-09-23T07:16:22.459Z,99042.22
2022-09-23T07:18:49.548Z,99040.34
2022-09-23T07:21:18.425Z,99036.59
2022-09-23T07:23:47.360Z,99043.25
2022-09-23T07:26:15.649Z,99038.41
2022-09-23T07:28:42.911Z,99036.28
2022-09-23T07:31:20.236Z,99035.47
2022-09-23T07:33:56.791Z,99034.66
2022-09-23T07:36:24.308Z,99037.50
2022-09-23T07:38:51.824Z,99032.59
2022-09-23T07:41:19.807Z,99028.44
2022-09-23T07:43:47.633Z,99034.53
2022-09-23T07:46:17.570Z,99030.44
2022-09-23T07:48:46.084Z,99034.13
2022-09-23T07:51:18.164Z,99019.63
2022-09-23T07:53:48.503Z,99017.34
2022-09-23T07:56:15.974Z,99009.50
2022-09-23T07:58:42.986Z,99025.28
2022-09-23T08:01:10.921Z,99020.38
2022-09-23T08:03:39.678Z,99028.00
2022-09-23T08:06:12.112Z,99029.09
2022-09-23T08:08:43.656Z,99018.47
2022-09-23T08:11:13.413Z,99013.03
2022-09-23T08:13:41.028Z,99005.69
2022-09-23T08:16:08.183Z,99015.50
2022-09-23T08:18:35.625Z,99016.06
2022-09-23T08:21:03.141Z,99004.72
2022-09-23T08:23:33.634Z,99000.91
2022-09-23T08:26:02.858Z,99003.63
2022-09-23T08:28:30.135Z,98998.69
2022-09-23T08:30:58.293Z,99007.34
2022-09-23T08:33:25.771Z,99007.38
2022-09-23T08:35:53.277Z,99003.56
2022-09-23T08:38:20.791Z,98991.59
2022-09-23T08:40:50.039Z,99013.47
2022-09-23T08:43:31.384Z,99009.28
2022-09-23T08:46:01.629Z,99009.13
2022-09-23T08:48:47.723Z,99013.00
2022-09-23T08:51:17.530Z,99016.84
2022-09-23T08:53:46.911Z,99028.16
2022-09-23T08:56:16.699Z,99037.53
2022-09-23T08:59:21.383Z,99044.25
2022-09-23T09:02:06.015Z,99031.75
2022-09-23T09:04:36.043Z,99030.72
2022-09-23T09:07:35.110Z,99022.69
2022-09-23T09:10:41.988Z,99021.72
2022-09-23T09:13:33.123Z,99005.25
2022-09-23T09:16:36.610Z,99000.34
2022-09-23T09:19:20.803Z,98996.00
2022-09-23T09:21:52.519Z,98989.00
2022-09-23T09:24:45.718Z,98981.38
2022-09-23T09:27:14.027Z,98973.56
2022-09-23T09:29:43.704Z,98975.50
2022-09-23T09:32:23.428Z,98968.78
2022-09-23T09:34:54.824Z,98979.63
2022-09-23T09:37:33.812Z,98997.31
2022-09-23T09:40:00.981Z,98999.00
2022-09-23T09:42:39.398Z,98994.09
2022-09-23T09:45:37.996Z,98992.22
2022-09-23T09:48:11.286Z,98991.66
2022-09-23T09:50:49.356Z,98988.41
2022-09-23T09:53:27.486Z,98994.88
2022-09-23T09:56:04.656Z,98999.22
2022-09-23T09:58:46.062Z,99000.25
2022-09-23T10:01:36.730Z,98996.44
2022-09-23T10:04:06.730Z,99001.03
2022-09-23T10:06:35.886Z,99002.63
2022-09-23T10:09:12.203Z,99007.81
2022-09-23T10:11:39.950Z,99003.75
2022-09-23T10:14:17.681Z,98999.69
2022-09-23T10:16:46.729Z,98992.94
2022-09-23T10:19:26.415Z,98988.09
2022-09-23T10:21:57.028Z,98982.16
2022-09-23T10:24:32.976Z,98987.59
2022-09-23T10:27:04.432Z,98997.06
2022-09-23T10:29:39.266Z,98985.78
2022-09-23T10:32:19.107Z,98982.38
2022-09-23T10:34:50.600Z,98974.22
2022-09-23T10:37:48.486Z,98963.69
2022-09-23T10:40:49.820Z,98967.19
2022-09-23T10:43:46.775Z,98962.78
2022-09-23T10:46:46.256Z,98959.81
2022-09-23T10:49:38.866Z,98959.81
2022-09-23T10:52:09.511Z,98952.25
2022-09-23T10:54:51.573Z,98948.19
2022-09-23T10:57:42.887Z,98941.69
2022-09-23T11:00:16.659Z,98944.34
2022-09-23T11:03:23.930Z,98934.25
2022-09-23T11:06:03.065Z,98932.22
2022-09-23T11:08:32.960Z,98932.41
2022-09-23T11:11:11.565Z,98916.69
2022-09-23T11:14:08.216Z,98920.28
2022-09-23T11:17:14.896Z,98927.69
2022-09-23T11:19:50.510Z,98928.66
2022-09-23T11:22:36.283Z,98926.56
2022-09-23T11:25:16.978Z,98932.19
2022-09-23T11:28:08.058Z,98919.22
2022-09-23T11:31:11.707Z,98916.88
2022-09-23T11:33:47.663Z,98906.44
2022-09-23T11:36:32.949Z,98909.59
2022-09-23T11:39:01.871Z,98906.25
2022-09-23T11:41:31.769Z,98903.63
2022-09-23T11:44:20.104Z,98900.94
2022-09-23T11:47:02.003Z,98906.91
2022-09-23T11:49:37.368Z,98922.59
2022-09-23T11:52:25.189Z,98935.59
2022-09-23T11:54:57.789Z,98934.50
2022-09-23T11:57:43.298Z,98935.03
2022-09-23T12:00:35.945Z,98925.84
2022-09-23T12:03:06.555Z,98915.50
2022-09-23T12:05:44.490Z,98922.84
2022-09-23T12:08:21.751Z,98930.19
2022-09-23T12:11:07.076Z,98938.31
2022-09-23T12:14:04.169Z,98939.34
2022-09-23T12:16:59.747Z,98939.84
2022-09-23T12:20:00.535Z,98929.22
2022-09-23T12:23:09.595Z,98937.34
2022-09-23T12:25:57.987Z,98924.63
2022-09-23T12:28:39.667Z,98918.16
2022-09-23T12:31:11.395Z,98906.28
2022-09-23T12:33:38.796Z,98911.94
2022-09-23T12:36:11.446Z,98910.34
2022-09-23T12:39:00.689Z,98901.34
2022-09-23T12:41:36.732Z,98903.19
2022-09-23T12:44:15.654Z,98901.47
2022-09-23T12:46:44.812Z,98904.16
2022-09-23T12:49:37.839Z,98894.72
2022-09-23T12:52:10.784Z,98890.41
2022-09-23T12:54:39.016Z,98886.63
2022-09-23T12:57:26.936Z,98882.59
2022-09-23T13:00:12.974Z,98883.16
2022-09-23T13:03:11.305Z,98885.63
2022-09-23T13:06:10.994Z,98887.28
2022-09-23T13:08:40.032Z,98882.44
2022-09-23T13:11:34.562Z,98881.06
2022-09-23T13:14:03.634Z,98882.09
2022-09-23T13:16:42.898Z,98882.88
2022-09-23T13:19:28.463Z,98881.25
2022-09-23T13:22:03.831Z,98878.53
2022-09-23T13:24:42.195Z,98873.09
2022-09-23T13:27:26.656Z,98876.38
2022-09-23T13:30:04.614Z,98869.03
2022-09-23T13:32:35.153Z,98874.44
2022-09-23T13:35:06.825Z,98878.47
2022-09-23T13:37:46.315Z,98871.94
2022-09-23T13:40:19.806Z,98867.38
2022-09-23T13:43:09.895Z,98862.03
2022-09-23T13:45:38.499Z,98861.50
2022-09-23T13:48:15.458Z,98857.97
2022-09-23T13:50:49.229Z,98852.31
2022-09-23T13:53:34.673Z,98852.31
2022-09-23T13:56:14.416Z,98855.25
2022-09-23T13:58:41.780Z,98862.25
2022-09-23T14:01:23.425Z,98860.84
2022-09-23T14:03:51.536Z,98852.13
2022-09-23T14:06:18.603Z,98850.22
2022-09-23T14:08:47.514Z,98851.84
2022-09-23T14:11:19.850Z,98852.88
2022-09-23T14:13:55.214Z,98846.84
2022-09-23T14:16:26.843Z,98835.44
2022-09-23T14:18:59.844Z,98840.56
2022-09-23T14:21:36.006Z,98828.81
2022-09-23T14:24:32.581Z,98824.72
2022-09-23T14:27:04.572Z,98828.97
2022-09-23T14:29:40.635Z,98829.50
2022-09-23T14:32:13.738Z,98819.22
2022-09-23T14:34:52.231Z,98835.16
2022-09-23T14:37:52.171Z,98831.34
2022-09-23T14:40:20.969Z,98831.78
2022-09-23T14:42:52.349Z,98827.72
2022-09-23T14:45:22.460Z,98820.38
2022-09-23T14:47:57.670Z,98828.19
2022-09-23T14:50:37.245Z,98832.75
2022-09-23T14:53:06.505Z,98825.97
2022-09-23T14:55:33.897Z,98812.97
2022-09-23T14:58:04.862Z,98814.81
2022-09-23T15:00:31.953Z,98815.31
2022-09-23T15:03:00.602Z,98807.47
2022-09-23T15:05:40.180Z,98806.03
2022-09-23T15:08:07.629Z,98800.53
2022-09-23T15:10:37.752Z,98799.66
2022-09-23T15:13:09.005Z,98805.28
2022-09-23T15:15:36.351Z,98798.19
2022-09-23T15:18:05.653Z,98807.56
2022-09-23T15:20:33.959Z,98815.31
2022-09-23T15:23:01.829Z,98809.88
2022-09-23T15:25:35.976Z,98813.94
2022-09-23T15:28:08.689Z,98815.56
2022-09-23T15:30:36.256Z,98802.75
2022-09-23T15:33:03.454Z,98808.16
2022-09-23T15:35:32.073Z,98808.63
2022-09-23T15:38:03.790Z,98809.38
2022-09-23T15:40:34.980Z,98812.28
2022-09-23T15:43:21.079Z,98810.56
2022-09-23T15:45:53.560Z,98812.97
2022-09-23T15:48:38.273Z,98807.00
2022-09-23T15:51:09.992Z,98814.22
2022-09-23T15:53:38.354Z,98802.28
2022-09-23T15:56:06.417Z,98807.38
2022-09-23T15:58:33.385Z,98805.19
2022-09-23T16:01:01.115Z,98804.91
2022-09-23T16:03:35.759Z,98804.41
2022-09-23T16:06:04.268Z,98807.38
2022-09-23T16:08:33.271Z,98807.31
2022-09-23T16:11:01.029Z,98802.22
2022-09-23T16:13:28.849Z,98807.63
2022-09-23T16:15:56.696Z,98797.84
2022-09-23T16:18:25.976Z,98782.50
2022-09-23T16:20:53.357Z,98806.59
2022-09-23T16:23:35.042Z,98788.97
2022-09-23T16:26:08.579Z,98799.59
2022-09-23T16:28:35.591Z,98800.41
2022-09-23T16:31:03.165Z,98803.69
2022-09-23T16:33:30.219Z,98790.72
2022-09-23T16:35:57.849Z,98783.19
2022-09-23T16:38:28.414Z,98772.91
2022-09-23T16:41:00.792Z,98776.69
2022-09-23T16:43:39.755Z,98774.47
2022-09-23T16:46:08.061Z,98766.56
2022-09-23T16:48:40.954Z,98760.84
2022-09-23T16:51:09.233Z,98756.47
2022-09-23T16:53:37.914Z,98760.78
2022-09-23T16:56:09.841Z,98759.91
2022-09-23T16:58:38.512Z,98755.81
2022-09-23T17:01:25.685Z,98760.41
2022-09-23T17:03:53.357Z,98749.44
2022-09-23T17:06:20.414Z,98733.94
2022-09-23T17:08:51.216Z,98746.91
2022-09-23T17:11:18.228Z,98751.31
2022-09-23T17:13:45.722Z,98753.53
2022-09-23T17:16:26.769Z,98756.22
2022-09-23T17:18:56.615Z,98756.72
2022-09-23T17:21:26.923Z,98738.88
2022-09-23T17:23:55.485Z,98741.09
2022-09-23T17:26:24.544Z,98732.44
2022-09-23T17:28:55.268Z,98723.44
2022-09-23T17:31:24.381Z,98721.81
2022-09-23T17:33:52.824Z,98728.59
2022-09-23T17:36:20.528Z,98722.41
2022-09-23T17:38:48.980Z,98731.31
2022-09-23T17:41:17.302Z,98717.00
2022-09-23T17:43:45.451Z,98717.59
2022-09-23T17:46:18.244Z,98718.97
2022-09-23T17:48:47.415Z,98720.50
2022-09-23T17:51:19.956Z,98718.41
2022-09-23T17:53:49.176Z,98715.63
2022-09-23T17:56:21.185Z,98723.66
2022-09-23T17:58:49.292Z,98727.97
2022-09-23T18:01:23.301Z,98725.34
2022-09-23T18:04:08.571Z,98719.38
2022-09-23T18:06:37.788Z,98719.56
2022-09-23T18:09:06.935Z,98718.25
2022-09-23T18:11:43.499Z,98707.47
2022-09-23T18:14:23.109Z,98704.69
2022-09-23T18:16:52.555Z,98702.97
2022-09-23T18:19:21.538Z,98700.28
2022-09-23T18:21:50.724Z,98703.47
2022-09-23T18:24:37.941Z,98695.09
2022-09-23T18:27:06.631Z,98698.25
2022-09-23T18:29:34.709Z,98686.84
2022-09-23T18:32:02.300Z,98686.28
2022-09-23T18:34:29.307Z,98680.88
2022-09-23T18:36:56.487Z,98692.47
2022-09-23T18:39:23.609Z,98684.16
2022-09-23T18:41:50.632Z,98680.97
2022-09-23T18:44:18.648Z,98678.78
2022-09-23T18:46:45.623Z,98674.50
2022-09-23T18:49:31.120Z,98686.09
2022-09-23T18:51:58.539Z,98677.47
2022-09-23T18:54:28.136Z,98673.13
2022-09-23T18:56:55.491Z,98676.88
2022-09-23T18:59:25.260Z,98674.19
2022-09-23T19:01:55.014Z,98666.03
2022-09-23T19:04:23.816Z,98660.63
2022-09-23T19:06:50.860Z,98665.47
2022-09-23T19:09:20.532Z,98663.41
2022-09-23T19:11:51.766Z,98648.22
2022-09-23T19:14:18.848Z,98647.81
2022-09-23T19:16:46.180Z,98641.28
2022-09-23T19:19:13.195Z,98654.44
2022-09-23T19:21:40.188Z,98647.91
2022-09-23T19:24:08.296Z,98650.06
2022-09-23T19:26:38.301Z,98650.59
2022-09-23T19:29:08.516Z,98659.03
2022-09-23T19:31:40.667Z,98646.94
2022-09-23T19:34:12.623Z,98643.44
2022-09-23T19:36:42.574Z,98646.13
2022-09-23T19:39:19.107Z,98639.91
2022-09-23T19:41:47.136Z,98634.50
2022-09-23T19:44:14.998Z,98631.91
2022-09-23T19:46:46.283Z,98622.78
2022-09-23T19:49:13.873Z,98617.94
2022-09-23T19:51:46.502Z,98622.84
2022-09-23T19:54:22.028Z,98600.56
2022-09-23T19:56:51.656Z,98611.50
2022-09-23T19:59:19.597Z,98597.72
2022-09-23T20:01:48.396Z,98595.00
2022-09-23T20:04:16.411Z,98602.31
2022-09-23T20:06:43.661Z,98596.13
2022-09-23T20:09:10.884Z,98586.66
2022-09-23T20:11:38.135Z,98591.25
2022-09-23T20:14:13.057Z,98583.97
2022-09-23T20:16:40.671Z,98566.63
2022-09-23T20:19:07.885Z,98568.53
2022-09-23T20:21:35.476Z,98580.78
2022-09-23T20:24:05.848Z,98566.81
2022-09-23T20:26:51.807Z,98564.66
2022-09-23T20:29:18.824Z,98560.34
2022-09-23T20:31:45.974Z,98559.22
2022-09-23T20:34:13.022Z,98555.91
2022-09-23T20:36:41.496Z,98551.25
2022-09-23T20:39:09.809Z,98541.59
2022-09-23T20:41:38.499Z,98539.75
2022-09-23T20:44:07.811Z,98525.63
2022-09-23T20:46:35.927Z,98526.03
2022-09-23T20:49:05.291Z,98528.44
2022-09-23T20:51:33.608Z,98527.13
2022-09-23T20:54:01.155Z,98527.69
2022-09-23T20:56:28.703Z,98520.19
2022-09-23T20:59:02.888Z,98520.19
2022-09-23T21:01:33.025Z,98522.38
2022-09-23T21:04:04.154Z,98514.28
2022-09-23T21:06:31.446Z,98515.38
2022-09-23T21:08:59.322Z,98506.22
2022-09-23T21:11:26.572Z,98518.94
2022-09-23T21:13:54.787Z,98518.19
2022-09-23T21:16:22.851Z,98503.88
2022-09-23T21:18:51.456Z,98495.25
2022-09-23T21:21:20.361Z,98491.66
2022-09-23T21:23:48.069Z,98490.56
2022-09-23T21:26:20.212Z,98487.34
2022-09-23T21:28:48.962Z,98485.47
2022-09-23T21:31:23.470Z,98477.09
2022-09-23T21:34:02.345Z,98469.47
2022-09-23T21:36:34.712Z,98473.25
2022-09-23T21:39:01.899Z,98471.63
2022-09-23T21:41:29.248Z,98468.38
2022-09-23T21:43:57.440Z,98472.44
2022-09-23T21:46:25.063Z,98465.41
2022-09-23T21:48:55.069Z,98459.47
2022-09-23T21:51:35.386Z,98460.59
2022-09-23T21:54:05.542Z,98461.34
2022-09-23T21:56:39.987Z,98454.84
2022-09-23T21:59:08.176Z,98453.97
2022-09-23T22:01:37.738Z,98449.25
2022-09-23T22:04:11.088Z,98434.03
2022-09-23T22:06:40.556Z,98433.72
2022-09-23T22:09:12.831Z,98439.34
2022-09-23T22:11:59.328Z,98422.53
2022-09-23T22:14:26.789Z,98426.88
2022-09-23T22:16:59.269Z,98421.50
2022-09-23T22:19:35.544Z,98417.66
2022-09-23T22:22:07.125Z,98414.84
2022-09-23T22:24:34.180Z,98416.34
2022-09-23T22:27:01.331Z,98402.81
2022-09-23T22:29:47.260Z,98393.91
2022-09-23T22:32:32.750Z,98391.06
2022-09-23T22:34:59.657Z,98390.41
2022-09-23T22:37:34.849Z,98381.47
2022-09-23T22:40:07.317Z,98380.56
2022-09-23T22:42:36.187Z,98376.16
2022-09-23T22:45:06.019Z,98374.78
2022-09-23T22:47:40.743Z,98379.00
2022-09-23T22:50:09.257Z,98377.03
2022-09-23T22:52:36.820Z,98379.16
2022-09-23T22:55:04.805Z,98372.66
2022-09-23T22:57:31.740Z,98367.59
2022-09-23T22:59:59.249Z,98365.50
2022-09-23T23:02:26.418Z,98356.94
2022-09-23T23:04:53.563Z,98349.34
2022-09-23T23:07:21.429Z,98341.22
2022-09-23T23:09:51.878Z,98342.66
2022-09-23T23:12:20.452Z,98330.13
2022-09-23T23:14:48.592Z,98337.59
2022-09-23T23:17:15.881Z,98330.63
2022-09-23T23:19:42.870Z,98334.91
2022-09-23T23:22:09.939Z,98322.72
2022-09-23T23:24:36.850Z,98318.63
2022-09-23T23:27:03.843Z,98320.78
2022-09-23T23:29:30.802Z,98317.19
2022-09-23T23:31:57.872Z,98314.75
2022-09-23T23:34:24.823Z,98298.38
2022-09-23T23:36:56.221Z,98294.06
2022-09-23T23:39:24.623Z,98294.06
2022-09-23T23:41:54.315Z,98290.56
2022-09-23T23:44:21.572Z,98282.50
2022-09-23T23:46:49.363Z,98280.06
2022-09-23T23:49:16.399Z,98279.97
2022-09-23T23:51:43.434Z,98277.53
2022-09-23T23:54:11.971Z,98269.47
2022-09-23T23:56:38.870Z,98261.66
2022-09-23T23:59:05.781Z,98244.16
